sensor_id;sensor_type;location;lat;lon;timestamp;pressure;altitude;pressure_sealevel;temperature;humidity
69855;BME280;57146;48.140;16.304;2023-02-14T00:00:56;101368.69;;;2.06;82.56
69855;BME280;57146;48.140;16.304;2023-02-14T00:03:23;101366.41;;;2.31;84.06
69855;BME280;57146;48.140;16.304;2023-02-14T00:05:51;101365.31;;;2.53;84.77
69855;BME280;57146;48.140;16.304;2023-02-14T00:08:18;101359.97;;;2.68;85.04
69855;BME280;57146;48.140;16.304;2023-02-14T00:10:46;101354.59;;;2.83;85.15
69855;BME280;57146;48.140;16.304;2023-02-14T00:13:13;101357.38;;;2.88;85.09
69855;BME280;57146;48.140;16.304;2023-02-14T00:15:39;101357.41;;;2.95;85.35
69855;BME280;57146;48.140;16.304;2023-02-14T00:18:08;101362.03;;;2.99;85.25
69855;BME280;57146;48.140;16.304;2023-02-14T00:20:34;101347.41;;;3.05;85.27
69855;BME280;57146;48.140;16.304;2023-02-14T00:23:28;101348.03;;;3.07;85.42
69855;BME280;57146;48.140;16.304;2023-02-14T00:25:55;101347.03;;;3.08;85.49
69855;BME280;57146;48.140;16.304;2023-02-14T00:28:23;101347.41;;;3.11;85.32
69855;BME280;57146;48.140;16.304;2023-02-14T00:30:50;101350.03;;;3.11;85.13
69855;BME280;57146;48.140;16.304;2023-02-14T00:33:17;101352.00;;;3.09;85.50
69855;BME280;57146;48.140;16.304;2023-02-14T00:35:44;101353.41;;;3.12;86.01
69855;BME280;57146;48.140;16.304;2023-02-14T00:38:36;101347.22;;;3.13;84.89
69855;BME280;57146;48.140;16.304;2023-02-14T00:41:06;101354.22;;;3.12;85.52
69855;BME280;57146;48.140;16.304;2023-02-14T00:43:33;101354.81;;;3.08;85.58
69855;BME280;57146;48.140;16.304;2023-02-14T00:45:59;101346.41;;;3.12;85.31
69855;BME280;57146;48.140;16.304;2023-02-14T00:48:26;101351.84;;;3.18;85.55
69855;BME280;57146;48.140;16.304;2023-02-14T00:50:53;101347.44;;;3.18;85.50
69855;BME280;57146;48.140;16.304;2023-02-14T00:53:20;101345.63;;;3.19;86.13
69855;BME280;57146;48.140;16.304;2023-02-14T00:55:48;101343.81;;;3.19;85.84
69855;BME280;57146;48.140;16.304;2023-02-14T00:58:15;101345.84;;;3.24;85.81
69855;BME280;57146;48.140;16.304;2023-02-14T01:00:43;101345.63;;;3.25;85.31
69855;BME280;57146;48.140;16.304;2023-02-14T01:03:10;101350.63;;;3.27;85.07
69855;BME280;57146;48.140;16.304;2023-02-14T01:05:36;101348.03;;;3.27;85.62
69855;BME280;57146;48.140;16.304;2023-02-14T01:08:03;101345.81;;;3.30;84.87
69855;BME280;57146;48.140;16.304;2023-02-14T01:10:55;101348.41;;;3.30;84.87
69855;BME280;57146;48.140;16.304;2023-02-14T01:13:25;101343.81;;;3.32;84.83
69855;BME280;57146;48.140;16.304;2023-02-14T01:15:54;101346.63;;;3.38;84.38
69855;BME280;57146;48.140;16.304;2023-02-14T01:18:21;101352.66;;;3.38;84.93
69855;BME280;57146;48.140;16.304;2023-02-14T01:20:48;101344.84;;;3.38;84.52
69855;BME280;57146;48.140;16.304;2023-02-14T01:23:41;101345.63;;;3.39;84.53
69855;BME280;57146;48.140;16.304;2023-02-14T01:26:09;101340.03;;;3.42;84.08
69855;BME280;57146;48.140;16.304;2023-02-14T01:28:37;101338.00;;;3.37;85.20
69855;BME280;57146;48.140;16.304;2023-02-14T01:31:09;101343.44;;;3.42;83.59
69855;BME280;57146;48.140;16.304;2023-02-14T01:33:40;101340.03;;;3.42;84.68
69855;BME280;57146;48.140;16.304;2023-02-14T01:36:17;101332.22;;;3.42;83.69
69855;BME280;57146;48.140;16.304;2023-02-14T01:38:45;101329.00;;;3.40;83.85
69855;BME280;57146;48.140;16.304;2023-02-14T01:41:12;101325.00;;;3.30;84.63
69855;BME280;57146;48.140;16.304;2023-02-14T01:46:16;101322.38;;;3.30;84.88
69855;BME280;57146;48.140;16.304;2023-02-14T01:48:44;101315.59;;;3.29;84.29
69855;BME280;57146;48.140;16.304;2023-02-14T01:51:12;101320.00;;;3.29;84.49
69855;BME280;57146;48.140;16.304;2023-02-14T01:53:39;101311.38;;;3.35;84.41
69855;BME280;57146;48.140;16.304;2023-02-14T01:56:11;101311.56;;;3.33;84.37
69855;BME280;57146;48.140;16.304;2023-02-14T01:58:41;101306.38;;;3.33;84.45
69855;BME280;57146;48.140;16.304;2023-02-14T02:01:12;101307.56;;;3.38;83.73
69855;BME280;57146;48.140;16.304;2023-02-14T02:03:48;101302.97;;;3.40;84.15
69855;BME280;57146;48.140;16.304;2023-02-14T02:06:20;101300.97;;;3.42;83.92
69855;BME280;57146;48.140;16.304;2023-02-14T02:09:04;101290.56;;;3.42;84.04
69855;BME280;57146;48.140;16.304;2023-02-14T02:11:34;101300.16;;;3.41;84.10
69855;BME280;57146;48.140;16.304;2023-02-14T02:14:02;101309.38;;;3.44;83.92
69855;BME280;57146;48.140;16.304;2023-02-14T02:17:10;101300.94;;;3.48;83.35
69855;BME280;57146;48.140;16.304;2023-02-14T02:41:47;101288.91;;;3.60;81.08
69855;BME280;57146;48.140;16.304;2023-02-14T02:44:28;101279.69;;;3.65;81.42
69855;BME280;57146;48.140;16.304;2023-02-14T02:55:18;101273.06;;;3.69;80.71
69855;BME280;57146;48.140;16.304;2023-02-14T02:57:48;101272.03;;;3.70;81.01
69855;BME280;57146;48.140;16.304;2023-02-14T03:00:17;101273.84;;;3.69;81.00
69855;BME280;57146;48.140;16.304;2023-02-14T03:02:50;101272.25;;;3.68;81.55
69855;BME280;57146;48.140;16.304;2023-02-14T03:05:18;101270.47;;;3.69;80.76
69855;BME280;57146;48.140;16.304;2023-02-14T03:07:47;101275.25;;;3.72;80.75
69855;BME280;57146;48.140;16.304;2023-02-14T03:10:21;101275.88;;;3.74;81.13
69855;BME280;57146;48.140;16.304;2023-02-14T03:18:55;101263.00;;;3.79;80.86
69855;BME280;57146;48.140;16.304;2023-02-14T03:21:59;101263.81;;;3.73;80.86
69855;BME280;57146;48.140;16.304;2023-02-14T03:40:37;101256.81;;;3.73;80.76
69855;BME280;57146;48.140;16.304;2023-02-14T03:43:09;101257.63;;;3.74;80.86
69855;BME280;57146;48.140;16.304;2023-02-14T03:45:51;101266.84;;;3.70;80.98
69855;BME280;57146;48.140;16.304;2023-02-14T03:48:22;101252.84;;;3.71;80.77
69855;BME280;57146;48.140;16.304;2023-02-14T03:50:52;101254.25;;;3.67;81.35
69855;BME280;57146;48.140;16.304;2023-02-14T03:53:23;101247.22;;;3.67;81.26
69855;BME280;57146;48.140;16.304;2023-02-14T03:56:00;101248.22;;;3.66;81.44
69855;BME280;57146;48.140;16.304;2023-02-14T03:58:37;101253.03;;;3.63;81.68
69855;BME280;57146;48.140;16.304;2023-02-14T04:01:10;101256.25;;;3.65;81.28
69855;BME280;57146;48.140;16.304;2023-02-14T04:03:40;101260.03;;;3.69;81.42
69855;BME280;57146;48.140;16.304;2023-02-14T04:06:08;101248.44;;;3.58;81.85
69855;BME280;57146;48.140;16.304;2023-02-14T04:08:35;101252.88;;;3.51;82.46
69855;BME280;57146;48.140;16.304;2023-02-14T04:11:03;101253.50;;;3.40;82.38
69855;BME280;57146;48.140;16.304;2023-02-14T04:13:31;101245.91;;;3.31;82.77
69855;BME280;57146;48.140;16.304;2023-02-14T04:15:57;101254.13;;;3.28;82.97
69855;BME280;57146;48.140;16.304;2023-02-14T04:18:25;101246.09;;;3.23;83.13
69855;BME280;57146;48.140;16.304;2023-02-14T04:20:51;101244.50;;;3.29;82.75
69855;BME280;57146;48.140;16.304;2023-02-14T04:23:18;101246.31;;;3.15;82.89
69855;BME280;57146;48.140;16.304;2023-02-14T04:25:45;101241.75;;;3.10;83.60
69855;BME280;57146;48.140;16.304;2023-02-14T04:28:12;101236.31;;;3.05;84.20
69855;BME280;57146;48.140;16.304;2023-02-14T04:30:39;101249.72;;;3.16;83.51
69855;BME280;57146;48.140;16.304;2023-02-14T04:33:06;101236.31;;;3.12;83.31
69855;BME280;57146;48.140;16.304;2023-02-14T04:35:34;101236.13;;;3.07;84.13
69855;BME280;57146;48.140;16.304;2023-02-14T04:38:02;101237.16;;;2.99;84.04
69855;BME280;57146;48.140;16.304;2023-02-14T04:40:29;101228.50;;;2.99;83.58
69855;BME280;57146;48.140;16.304;2023-02-14T04:42:56;101226.34;;;2.96;84.13
69855;BME280;57146;48.140;16.304;2023-02-14T04:45:23;101227.72;;;2.92;84.14
69855;BME280;57146;48.140;16.304;2023-02-14T04:47:50;101223.53;;;2.84;84.48
69855;BME280;57146;48.140;16.304;2023-02-14T04:50:17;101225.34;;;2.90;84.65
69855;BME280;57146;48.140;16.304;2023-02-14T04:52:44;101220.72;;;2.79;85.38
69855;BME280;57146;48.140;16.304;2023-02-14T04:55:11;101222.13;;;2.75;84.95
69855;BME280;57146;48.140;16.304;2023-02-14T04:57:37;101231.34;;;2.71;85.46
69855;BME280;57146;48.140;16.304;2023-02-14T05:00:05;101236.16;;;2.67;85.63
69855;BME280;57146;48.140;16.304;2023-02-14T05:02:32;101227.50;;;2.67;86.04
69855;BME280;57146;48.140;16.304;2023-02-14T05:04:59;101230.13;;;2.73;85.65
69855;BME280;57146;48.140;16.304;2023-02-14T05:07:26;101236.94;;;2.74;86.33
69855;BME280;57146;48.140;16.304;2023-02-14T05:09:53;101239.34;;;2.76;85.89
69855;BME280;57146;48.140;16.304;2023-02-14T05:12:20;101228.72;;;2.84;85.87
69855;BME280;57146;48.140;16.304;2023-02-14T05:14:47;101238.16;;;2.85;85.53
69855;BME280;57146;48.140;16.304;2023-02-14T05:17:13;101242.75;;;2.90;85.49
69855;BME280;57146;48.140;16.304;2023-02-14T05:19:40;101242.13;;;2.94;85.91
69855;BME280;57146;48.140;16.304;2023-02-14T05:22:07;101243.31;;;2.98;85.21
69855;BME280;57146;48.140;16.304;2023-02-14T05:24:34;101237.53;;;2.96;85.38
69855;BME280;57146;48.140;16.304;2023-02-14T05:27:02;101241.75;;;2.97;85.87
69855;BME280;57146;48.140;16.304;2023-02-14T05:29:28;101238.53;;;3.02;85.40
69855;BME280;57146;48.140;16.304;2023-02-14T05:31:55;101242.94;;;3.01;85.25
69855;BME280;57146;48.140;16.304;2023-02-14T05:34:22;101239.75;;;2.99;85.58
69855;BME280;57146;48.140;16.304;2023-02-14T05:36:49;101234.50;;;3.06;85.24
69855;BME280;57146;48.140;16.304;2023-02-14T05:39:16;101229.13;;;3.07;85.43
69855;BME280;57146;48.140;16.304;2023-02-14T05:41:43;101229.75;;;3.03;85.75
69855;BME280;57146;48.140;16.304;2023-02-14T05:44:10;101226.31;;;3.09;85.00
69855;BME280;57146;48.140;16.304;2023-02-14T05:46:37;101228.72;;;3.10;85.23
69855;BME280;57146;48.140;16.304;2023-02-14T05:49:04;101224.72;;;3.08;84.35
69855;BME280;57146;48.140;16.304;2023-02-14T05:51:31;101224.50;;;3.09;84.85
69855;BME280;57146;48.140;16.304;2023-02-14T05:53:58;101221.72;;;3.04;84.86
69855;BME280;57146;48.140;16.304;2023-02-14T05:56:25;101227.53;;;3.06;84.80
69855;BME280;57146;48.140;16.304;2023-02-14T05:58:52;101216.50;;;3.11;84.96
69855;BME280;57146;48.140;16.304;2023-02-14T06:01:18;101224.72;;;3.15;84.87
69855;BME280;57146;48.140;16.304;2023-02-14T06:03:45;101231.50;;;3.16;84.61
69855;BME280;57146;48.140;16.304;2023-02-14T06:06:12;101237.72;;;3.21;83.91
69855;BME280;57146;48.140;16.304;2023-02-14T06:08:39;101240.09;;;3.23;83.96
69855;BME280;57146;48.140;16.304;2023-02-14T06:11:06;101246.09;;;3.23;83.92
69855;BME280;57146;48.140;16.304;2023-02-14T06:13:33;101241.13;;;3.28;83.70
69855;BME280;57146;48.140;16.304;2023-02-14T06:16:02;101244.28;;;3.30;83.58
69855;BME280;57146;48.140;16.304;2023-02-14T06:18:28;101239.91;;;3.31;83.95
69855;BME280;57146;48.140;16.304;2023-02-14T06:20:55;101238.09;;;3.31;83.09
69855;BME280;57146;48.140;16.304;2023-02-14T06:23:23;101230.28;;;3.31;83.40
69855;BME280;57146;48.140;16.304;2023-02-14T06:25:50;101241.91;;;3.29;83.38
69855;BME280;57146;48.140;16.304;2023-02-14T06:28:16;101239.72;;;3.26;83.27
69855;BME280;57146;48.140;16.304;2023-02-14T06:30:45;101241.13;;;3.28;83.14
69855;BME280;57146;48.140;16.304;2023-02-14T06:33:12;101243.72;;;3.28;83.84
69855;BME280;57146;48.140;16.304;2023-02-14T06:35:39;101249.50;;;3.30;82.98
69855;BME280;57146;48.140;16.304;2023-02-14T06:38:06;101251.31;;;3.30;83.23
69855;BME280;57146;48.140;16.304;2023-02-14T06:40:33;101250.72;;;3.28;83.43
69855;BME280;57146;48.140;16.304;2023-02-14T06:42:59;101244.53;;;3.22;83.54
69855;BME280;57146;48.140;16.304;2023-02-14T06:45:26;101253.13;;;3.23;83.14
69855;BME280;57146;48.140;16.304;2023-02-14T06:47:53;101254.53;;;3.19;83.69
69855;BME280;57146;48.140;16.304;2023-02-14T06:50:20;101250.91;;;3.20;83.70
69855;BME280;57146;48.140;16.304;2023-02-14T06:52:47;101252.13;;;3.24;83.38
69855;BME280;57146;48.140;16.304;2023-02-14T06:55:14;101258.94;;;3.25;83.39
69855;BME280;57146;48.140;16.304;2023-02-14T06:57:40;101254.94;;;3.22;83.70
69855;BME280;57146;48.140;16.304;2023-02-14T07:00:08;101258.53;;;3.28;83.44
69855;BME280;57146;48.140;16.304;2023-02-14T07:02:35;101262.91;;;3.34;83.17
69855;BME280;57146;48.140;16.304;2023-02-14T07:05:02;101273.72;;;3.38;82.51
69855;BME280;57146;48.140;16.304;2023-02-14T07:07:29;101268.09;;;3.47;82.93
69855;BME280;57146;48.140;16.304;2023-02-14T07:09:56;101266.69;;;3.51;82.19
69855;BME280;57146;48.140;16.304;2023-02-14T07:12:23;101267.69;;;3.50;82.26
69855;BME280;57146;48.140;16.304;2023-02-14T07:14:49;101262.06;;;3.60;81.69
69855;BME280;57146;48.140;16.304;2023-02-14T07:17:16;101269.88;;;3.67;81.56
69855;BME280;57146;48.140;16.304;2023-02-14T07:19:43;101270.06;;;3.58;81.20
69855;BME280;57146;48.140;16.304;2023-02-14T07:22:10;101270.28;;;3.57;81.77
69855;BME280;57146;48.140;16.304;2023-02-14T07:24:37;101270.47;;;3.55;81.65
69855;BME280;57146;48.140;16.304;2023-02-14T07:27:04;101266.69;;;3.51;81.95
69855;BME280;57146;48.140;16.304;2023-02-14T07:29:31;101274.31;;;3.53;82.53
69855;BME280;57146;48.140;16.304;2023-02-14T07:31:58;101272.50;;;3.53;82.20
69855;BME280;57146;48.140;16.304;2023-02-14T07:34:25;101278.72;;;3.52;81.41
69855;BME280;57146;48.140;16.304;2023-02-14T07:36:52;101277.09;;;3.51;81.94
69855;BME280;57146;48.140;16.304;2023-02-14T07:39:19;101290.13;;;3.51;82.36
69855;BME280;57146;48.140;16.304;2023-02-14T07:41:46;101279.94;;;3.50;82.48
69855;BME280;57146;48.140;16.304;2023-02-14T07:44:18;101284.13;;;3.51;82.25
69855;BME280;57146;48.140;16.304;2023-02-14T07:46:45;101285.31;;;3.55;81.53
69855;BME280;57146;48.140;16.304;2023-02-14T07:49:11;101288.53;;;3.57;81.53
69855;BME280;57146;48.140;16.304;2023-02-14T07:51:38;101283.50;;;3.55;81.71
69855;BME280;57146;48.140;16.304;2023-02-14T07:54:05;101288.72;;;3.55;81.92
69855;BME280;57146;48.140;16.304;2023-02-14T07:56:32;101290.34;;;3.56;81.59
69855;BME280;57146;48.140;16.304;2023-02-14T07:58:59;101289.94;;;3.59;81.96
69855;BME280;57146;48.140;16.304;2023-02-14T08:01:26;101300.34;;;3.59;81.32
69855;BME280;57146;48.140;16.304;2023-02-14T08:03:53;101291.72;;;3.59;82.16
69855;BME280;57146;48.140;16.304;2023-02-14T08:06:20;101295.72;;;3.62;81.49
69855;BME280;57146;48.140;16.304;2023-02-14T08:08:47;101298.13;;;3.63;82.29
69855;BME280;57146;48.140;16.304;2023-02-14T08:11:14;101295.13;;;3.59;82.25
69855;BME280;57146;48.140;16.304;2023-02-14T08:13:41;101306.94;;;3.62;82.67
69855;BME280;57146;48.140;16.304;2023-02-14T08:16:08;101309.75;;;3.67;82.73
69855;BME280;57146;48.140;16.304;2023-02-14T08:18:37;101305.31;;;3.68;82.49
69855;BME280;57146;48.140;16.304;2023-02-14T08:21:08;101303.31;;;3.70;82.76
69855;BME280;57146;48.140;16.304;2023-02-14T08:23:38;101306.91;;;3.69;82.89
69855;BME280;57146;48.140;16.304;2023-02-14T08:26:06;101307.13;;;3.67;83.24
69855;BME280;57146;48.140;16.304;2023-02-14T08:28:33;101311.13;;;3.70;82.65
69855;BME280;57146;48.140;16.304;2023-02-14T08:31:02;101310.94;;;3.71;83.33
69855;BME280;57146;48.140;16.304;2023-02-14T08:33:30;101303.91;;;3.72;82.94
69855;BME280;57146;48.140;16.304;2023-02-14T08:35:57;101312.75;;;3.71;83.09
69855;BME280;57146;48.140;16.304;2023-02-14T08:38:24;101319.94;;;3.69;83.71
69855;BME280;57146;48.140;16.304;2023-02-14T08:40:51;101316.53;;;3.68;83.03
69855;BME280;57146;48.140;16.304;2023-02-14T08:43:18;101316.31;;;3.70;83.41
69855;BME280;57146;48.140;16.304;2023-02-14T08:45:45;101320.56;;;3.71;83.40
69855;BME280;57146;48.140;16.304;2023-02-14T08:48:12;101325.94;;;3.69;83.98
69855;BME280;57146;48.140;16.304;2023-02-14T08:50:39;101322.56;;;3.69;83.84
69855;BME280;57146;48.140;16.304;2023-02-14T08:53:10;101325.75;;;3.71;83.31
69855;BME280;57146;48.140;16.304;2023-02-14T08:55:38;101320.97;;;3.68;83.91
69855;BME280;57146;48.140;16.304;2023-02-14T08:58:06;101320.97;;;3.68;83.43
69855;BME280;57146;48.140;16.304;2023-02-14T09:00:33;101327.59;;;3.64;83.67
69855;BME280;57146;48.140;16.304;2023-02-14T09:03:00;101327.19;;;3.67;83.93
69855;BME280;57146;48.140;16.304;2023-02-14T09:05:27;101326.34;;;3.66;83.91
69855;BME280;57146;48.140;16.304;2023-02-14T09:07:54;101325.56;;;3.66;84.66
69855;BME280;57146;48.140;16.304;2023-02-14T09:10:22;101331.97;;;3.70;83.74
69855;BME280;57146;48.140;16.304;2023-02-14T09:12:50;101330.75;;;3.66;84.66
69855;BME280;57146;48.140;16.304;2023-02-14T09:15:17;101340.19;;;3.67;84.45
69855;BME280;57146;48.140;16.304;2023-02-14T09:17:44;101346.59;;;3.64;84.39
69855;BME280;57146;48.140;16.304;2023-02-14T09:20:13;101347.19;;;3.66;84.46
69855;BME280;57146;48.140;16.304;2023-02-14T09:22:41;101349.78;;;3.66;85.11
69855;BME280;57146;48.140;16.304;2023-02-14T09:25:08;101344.97;;;3.70;84.27
69855;BME280;57146;48.140;16.304;2023-02-14T09:27:35;101347.00;;;3.74;84.20
69855;BME280;57146;48.140;16.304;2023-02-14T09:30:02;101351.41;;;3.74;84.04
69855;BME280;57146;48.140;16.304;2023-02-14T09:32:29;101345.59;;;3.72;84.18
69855;BME280;57146;48.140;16.304;2023-02-14T09:34:56;101358.41;;;3.73;83.95
69855;BME280;57146;48.140;16.304;2023-02-14T09:37:23;101355.22;;;3.71;84.35
69855;BME280;57146;48.140;16.304;2023-02-14T09:39:50;101343.00;;;3.72;83.74
69855;BME280;57146;48.140;16.304;2023-02-14T09:47:52;101347.56;;;3.83;83.22
69855;BME280;57146;48.140;16.304;2023-02-14T09:50:27;101348.75;;;3.87;83.53
69855;BME280;57146;48.140;16.304;2023-02-14T09:52:57;101350.97;;;3.83;83.02
69855;BME280;57146;48.140;16.304;2023-02-14T09:55:37;101346.38;;;3.86;82.47
69855;BME280;57146;48.140;16.304;2023-02-14T09:58:16;101345.75;;;3.83;82.64
69855;BME280;57146;48.140;16.304;2023-02-14T10:00:48;101344.97;;;3.83;82.79
69855;BME280;57146;48.140;16.304;2023-02-14T10:11:44;101345.16;;;3.88;81.77
69855;BME280;57146;48.140;16.304;2023-02-14T10:14:15;101357.75;;;3.91;81.23
69855;BME280;57146;48.140;16.304;2023-02-14T10:16:57;101351.16;;;3.95;81.32
69855;BME280;57146;48.140;16.304;2023-02-14T10:19:26;101343.75;;;3.99;81.68
69855;BME280;57146;48.140;16.304;2023-02-14T10:21:57;101342.91;;;3.98;81.30
69855;BME280;57146;48.140;16.304;2023-02-14T10:24:29;101335.69;;;4.00;81.15
69855;BME280;57146;48.140;16.304;2023-02-14T10:29:50;101344.91;;;4.03;81.07
69855;BME280;57146;48.140;16.304;2023-02-14T10:32:34;101340.09;;;4.06;80.60
69855;BME280;57146;48.140;16.304;2023-02-14T10:35:14;101340.09;;;4.13;80.65
69855;BME280;57146;48.140;16.304;2023-02-14T10:40:27;101337.66;;;4.18;80.76
69855;BME280;57146;48.140;16.304;2023-02-14T10:54:08;101322.38;;;4.28;78.78
69855;BME280;57146;48.140;16.304;2023-02-14T10:56:44;101309.72;;;4.32;78.48
69855;BME280;57146;48.140;16.304;2023-02-14T11:01:50;101311.69;;;4.37;78.96
69855;BME280;57146;48.140;16.304;2023-02-14T11:04:21;101308.66;;;4.40;78.80
69855;BME280;57146;48.140;16.304;2023-02-14T11:06:49;101308.88;;;4.38;78.49
69855;BME280;57146;48.140;16.304;2023-02-14T11:09:17;101306.66;;;4.42;77.79
69855;BME280;57146;48.140;16.304;2023-02-14T11:11:53;101294.41;;;4.42;77.55
69855;BME280;57146;48.140;16.304;2023-02-14T11:14:31;101295.38;;;4.48;78.08
69855;BME280;57146;48.140;16.304;2023-02-14T11:17:00;101292.72;;;4.54;78.08
69855;BME280;57146;48.140;16.304;2023-02-14T11:19:59;101289.34;;;4.54;77.41
69855;BME280;57146;48.140;16.304;2023-02-14T11:22:31;101290.13;;;4.54;77.36
69855;BME280;57146;48.140;16.304;2023-02-14T11:25:06;101294.94;;;4.57;77.05
69855;BME280;57146;48.140;16.304;2023-02-14T11:27:45;101292.13;;;4.59;77.79
69855;BME280;57146;48.140;16.304;2023-02-14T11:30:21;101284.06;;;4.61;76.25
69855;BME280;57146;48.140;16.304;2023-02-14T11:32:52;101279.66;;;4.61;76.73
69855;BME280;57146;48.140;16.304;2023-02-14T11:35:20;101279.47;;;4.63;77.47
69855;BME280;57146;48.140;16.304;2023-02-14T11:37:50;101292.88;;;4.66;76.61
69855;BME280;57146;48.140;16.304;2023-02-14T11:40:35;101285.97;;;4.78;77.26
69855;BME280;57146;48.140;16.304;2023-02-14T11:45:43;101281.97;;;4.76;76.80
69855;BME280;57146;48.140;16.304;2023-02-14T11:51:06;101270.72;;;4.75;76.53
69855;BME280;57146;48.140;16.304;2023-02-14T11:53:46;101273.13;;;4.77;75.75
69855;BME280;57146;48.140;16.304;2023-02-14T11:56:16;101266.91;;;4.78;75.68
69855;BME280;57146;48.140;16.304;2023-02-14T12:01:20;101272.28;;;4.83;75.34
69855;BME280;57146;48.140;16.304;2023-02-14T12:03:47;101266.84;;;4.85;75.10
69855;BME280;57146;48.140;16.304;2023-02-14T12:06:29;101259.06;;;4.78;75.28
69855;BME280;57146;48.140;16.304;2023-02-14T12:09:33;101255.25;;;4.80;75.40
69855;BME280;57146;48.140;16.304;2023-02-14T12:12:02;101256.47;;;4.78;74.65
69855;BME280;57146;48.140;16.304;2023-02-14T12:14:32;101250.03;;;4.80;75.10
69855;BME280;57146;48.140;16.304;2023-02-14T12:17:05;101254.28;;;4.75;75.55
69855;BME280;57146;48.140;16.304;2023-02-14T12:20:09;101246.81;;;4.78;75.29
69855;BME280;57146;48.140;16.304;2023-02-14T12:22:36;101245.59;;;4.81;74.68
69855;BME280;57146;48.140;16.304;2023-02-14T12:25:13;101240.75;;;4.85;74.94
69855;BME280;57146;48.140;16.304;2023-02-14T12:27:49;101246.56;;;4.87;75.42
69855;BME280;57146;48.140;16.304;2023-02-14T12:30:21;101236.91;;;4.87;74.93
69855;BME280;57146;48.140;16.304;2023-02-14T12:32:53;101233.31;;;4.88;73.83
69855;BME280;57146;48.140;16.304;2023-02-14T12:52:05;101238.09;;;4.91;73.12
69855;BME280;57146;48.140;16.304;2023-02-14T12:54:44;101226.28;;;4.89;73.13
69855;BME280;57146;48.140;16.304;2023-02-14T13:13:21;101227.94;;;5.01;73.33
69855;BME280;57146;48.140;16.304;2023-02-14T13:20:58;101220.84;;;5.09;72.78
69855;BME280;57146;48.140;16.304;2023-02-14T13:23:40;101220.84;;;5.09;72.30
69855;BME280;57146;48.140;16.304;2023-02-14T13:26:18;101221.69;;;5.09;72.05
69855;BME280;57146;48.140;16.304;2023-02-14T13:29:02;101209.84;;;5.07;72.43
69855;BME280;57146;48.140;16.304;2023-02-14T13:31:30;101212.22;;;5.08;72.35
69855;BME280;57146;48.140;16.304;2023-02-14T13:34:02;101214.66;;;5.10;72.80
69855;BME280;57146;48.140;16.304;2023-02-14T13:36:33;101214.84;;;5.08;72.30
69855;BME280;57146;48.140;16.304;2023-02-14T13:39:02;101212.81;;;5.10;72.17
69855;BME280;57146;48.140;16.304;2023-02-14T13:41:29;101205.19;;;5.09;72.60
69855;BME280;57146;48.140;16.304;2023-02-14T13:43:59;101204.19;;;5.10;72.67
69855;BME280;57146;48.140;16.304;2023-02-14T13:54:37;101206.94;;;5.15;72.14
69855;BME280;57146;48.140;16.304;2023-02-14T13:57:34;101211.81;;;5.11;71.82
69855;BME280;57146;48.140;16.304;2023-02-14T14:02:48;101204.63;;;5.07;72.05
69855;BME280;57146;48.140;16.304;2023-02-14T14:10:58;101211.25;;;5.09;71.55
69855;BME280;57146;48.140;16.304;2023-02-14T14:21:29;101197.00;;;5.05;72.61
69855;BME280;57146;48.140;16.304;2023-02-14T14:26:45;101199.28;;;5.20;71.81
69855;BME280;57146;48.140;16.304;2023-02-14T14:29:38;101190.44;;;5.21;72.30
69855;BME280;57146;48.140;16.304;2023-02-14T14:32:24;101187.22;;;5.19;71.23
69855;BME280;57146;48.140;16.304;2023-02-14T14:35:15;101185.34;;;5.08;71.55
69855;BME280;57146;48.140;16.304;2023-02-14T14:37:52;101179.63;;;5.17;72.28
69855;BME280;57146;48.140;16.304;2023-02-14T14:42:54;101172.28;;;5.26;71.64
69855;BME280;57146;48.140;16.304;2023-02-14T14:45:27;101169.25;;;5.29;71.70
69855;BME280;57146;48.140;16.304;2023-02-14T14:48:06;101174.59;;;5.16;71.51
69855;BME280;57146;48.140;16.304;2023-02-14T14:50:34;101166.94;;;5.21;71.45
69855;BME280;57146;48.140;16.304;2023-02-14T14:53:07;101169.19;;;5.17;71.25
69855;BME280;57146;48.140;16.304;2023-02-14T14:55:44;101168.22;;;5.12;71.86
69855;BME280;57146;48.140;16.304;2023-02-14T15:00:57;101159.88;;;5.03;71.92
69855;BME280;57146;48.140;16.304;2023-02-14T15:03:26;101157.28;;;5.03;72.04
69855;BME280;57146;48.140;16.304;2023-02-14T15:06:06;101169.78;;;4.94;72.25
69855;BME280;57146;48.140;16.304;2023-02-14T15:08:34;101160.75;;;4.97;72.03
69855;BME280;57146;48.140;16.304;2023-02-14T15:13:45;101162.06;;;4.88;72.79
69855;BME280;57146;48.140;16.304;2023-02-14T15:16:16;101163.22;;;4.92;72.86
69855;BME280;57146;48.140;16.304;2023-02-14T15:18:44;101155.75;;;4.95;72.13
69855;BME280;57146;48.140;16.304;2023-02-14T15:21:12;101161.75;;;4.96;72.19
69855;BME280;57146;48.140;16.304;2023-02-14T15:23:41;101158.38;;;4.95;72.04
69855;BME280;57146;48.140;16.304;2023-02-14T15:26:16;101157.03;;;4.86;72.38
69855;BME280;57146;48.140;16.304;2023-02-14T15:28:44;101161.47;;;4.86;72.31
69855;BME280;57146;48.140;16.304;2023-02-14T15:31:19;101158.44;;;4.89;72.26
69855;BME280;57146;48.140;16.304;2023-02-14T15:33:46;101161.22;;;4.87;72.54
69855;BME280;57146;48.140;16.304;2023-02-14T15:36:19;101162.53;;;4.78;72.72
69855;BME280;57146;48.140;16.304;2023-02-14T15:38:47;101172.97;;;4.78;71.86
69855;BME280;57146;48.140;16.304;2023-02-14T15:41:15;101172.06;;;4.66;72.42
69855;BME280;57146;48.140;16.304;2023-02-14T15:43:42;101170.53;;;4.58;73.16
69855;BME280;57146;48.140;16.304;2023-02-14T15:46:16;101168.72;;;4.59;72.76
69855;BME280;57146;48.140;16.304;2023-02-14T15:48:45;101172.34;;;4.57;73.16
69855;BME280;57146;48.140;16.304;2023-02-14T15:51:19;101174.38;;;4.55;72.86
69855;BME280;57146;48.140;16.304;2023-02-14T15:53:56;101180.59;;;4.54;72.53
69855;BME280;57146;48.140;16.304;2023-02-14T15:56:29;101172.19;;;4.52;73.11